首页
METAR-TAF:

METAR-TAF

机场 :

Blue River, 不列颠哥伦比亚, 加拿大

纬度: 52-08N, 经度: 119-18W, 海拔: 679米

当前天气观测

该预报发布于1小时和7分钟前的14:00 UTC
风速3节,风向南转西南
温度 6°C
湿度 100%
气压 1014 hPa
能見度: 6.4公里
少量云层高于200英尺
多云层高于2400英尺
多云层高于5000英尺
轻雾

METAR: CYCP 121400Z 20003KT 4SM BR FEW002 BKN024 BKN050 06/06 A2995 RMK SF3SC2CU1 VIS E 1 SLP157

时间: 08:07 (15:07 UTC)


TAF: 丢失

超过4000个机场的气象观测和天气预报(METAR&TAF报告)。

可查询的气象台以黄色和红色小点在地图上表示。

将鼠标移到小点上方,可查看气象台名称。

然后点击查看天气观测和预报。

如需切换地图:点击带黑十字的绿色按钮放大地图;点击带横线的绿色按钮缩小地图;或者点击绿色箭头查看邻近地区的地图。


METAR-TAF: